Time;durP1;ratioP1;P1;durP2;ratioP2;P2;SDS_P1;SDS_P2;PMS_P1;PMS_P2;Temp;Humidity;BMP_temperature;BMP_pressure;BME280_temperature;BME280_humidity;BME280_pressure;Samples;Min_cycle;Max_cycle;Signal;HPM_P1;HPM_P2
2023/03/31 00:00:29;;;;;;;9.68;6.80;;;;;;;12.18;100.00;100045.81;5109071;28;20023;-72
2023/03/31 00:02:57;;;;;;;13.10;7.03;;;;;;;12.22;100.00;100042.66;5108792;28;20016;-72
2023/03/31 00:05:23;;;;;;;11.77;6.80;;;;;;;12.17;100.00;100039.59;5109220;28;20118;-71
2023/03/31 00:08:02;;;;;;;9.20;6.43;;;;;;;12.16;100.00;100043.25;5108612;28;20122;-72
2023/03/31 00:10:30;;;;;;;9.02;6.38;;;;;;;12.19;100.00;100052.91;5108707;28;20390;-68
2023/03/31 00:12:56;;;;;;;10.07;6.45;;;;;;;12.06;100.00;100030.91;5106685;28;20467;-69
2023/03/31 00:15:22;;;;;;;9.65;6.65;;;;;;;12.16;100.00;100045.13;5107912;27;20123;-68
2023/03/31 00:17:48;;;;;;;12.55;6.78;;;;;;;12.18;100.00;100043.13;5108293;28;20094;-69
2023/03/31 00:20:14;;;;;;;11.48;5.97;;;;;;;12.17;100.00;100036.06;5108324;28;20164;-68
2023/03/31 00:22:46;;;;;;;12.45;7.55;;;;;;;12.28;100.00;100049.31;5106482;28;20463;-68
2023/03/31 00:25:13;;;;;;;10.07;6.65;;;;;;;12.24;100.00;100047.88;5107774;27;20382;-69
2023/03/31 00:27:43;;;;;;;8.23;6.35;;;;;;;12.13;100.00;100022.09;5108516;28;20055;-69
2023/03/31 00:30:09;;;;;;;9.98;6.07;;;;;;;12.31;100.00;100049.81;5107668;28;20404;-68
2023/03/31 00:32:35;;;;;;;11.05;6.03;;;;;;;12.33;100.00;100022.78;5106278;28;20527;-68
2023/03/31 00:35:01;;;;;;;6.57;5.38;;;;;;;12.40;100.00;100040.00;5105866;28;20122;-69
2023/03/31 00:37:27;;;;;;;9.70;5.40;;;;;;;12.21;100.00;100024.84;5107763;28;20106;-69
2023/03/31 00:39:52;;;;;;;11.20;5.72;;;;;;;12.17;100.00;100028.84;5107840;28;20431;-69
2023/03/31 00:42:18;;;;;;;9.30;5.90;;;;;;;12.00;100.00;100010.88;5107910;28;20019;-69
2023/03/31 00:45:15;;;;;;;11.43;6.22;;;;;;;12.31;100.00;100033.69;5108071;28;20115;-69
2023/03/31 00:48:13;;;;;;;8.27;5.80;;;;;;;12.22;100.00;100039.97;5107883;28;20031;-69
2023/03/31 00:50:51;;;;;;;8.80;6.00;;;;;;;12.04;100.00;100006.88;5105659;28;20128;-69
2023/03/31 00:53:21;;;;;;;10.02;6.93;;;;;;;12.21;100.00;100026.69;5105955;28;20035;-69
2023/03/31 00:55:52;;;;;;;10.98;5.97;;;;;;;12.24;100.00;100010.25;5105954;28;20527;-69
2023/03/31 00:58:19;;;;;;;9.45;5.53;;;;;;;12.33;100.00;100022.78;5105259;28;20107;-69
2023/03/31 01:00:52;;;;;;;10.13;6.70;;;;;;;12.31;100.00;100017.56;5107242;28;20467;-69
2023/03/31 01:03:21;;;;;;;9.90;6.65;;;;;;;12.29;100.00;100002.59;5106611;28;20785;-69
2023/03/31 01:05:53;;;;;;;8.25;5.95;;;;;;;12.35;100.00;100018.94;5107255;28;20114;-69
2023/03/31 01:08:23;;;;;;;7.50;5.53;;;;;;;12.16;100.00;99985.97;5107809;28;20031;-69
2023/03/31 01:10:52;;;;;;;11.57;6.07;;;;;;;12.17;100.00;100012.72;5106673;28;20027;-69
2023/03/31 01:13:20;;;;;;;9.93;6.03;;;;;;;12.18;100.00;100008.16;5106568;28;20390;-69
2023/03/31 01:15:46;;;;;;;8.60;5.85;;;;;;;12.26;100.00;100025.25;5106870;28;20038;-69
2023/03/31 01:18:14;;;;;;;8.80;6.63;;;;;;;12.15;100.00;100028.13;5105999;28;20023;-70
2023/03/31 01:21:05;;;;;;;7.97;5.75;;;;;;;12.07;100.00;100013.78;5106704;28;20118;-69
2023/03/31 01:23:41;;;;;;;11.50;5.97;;;;;;;12.14;100.00;100021.09;5106544;27;20047;-69
2023/03/31 01:26:37;;;;;;;7.75;5.97;;;;;;;12.12;100.00;100014.19;5106864;28;20035;-70
2023/03/31 01:29:11;;;;;;;7.75;5.60;;;;;;;12.20;100.00;100014.25;5072974;28;20044;-70
2023/03/31 01:31:58;;;;;;;6.00;5.40;;;;;;;12.19;100.00;100009.88;5103931;28;20407;-70
2023/03/31 01:35:01;;;;;;;10.18;5.55;;;;;;;12.16;100.00;100000.25;5106952;28;20043;-70
2023/03/31 01:37:56;;;;;;;6.53;5.00;;;;;;;12.16;100.00;100007.50;5107879;28;20035;-69
2023/03/31 01:40:24;;;;;;;8.73;5.22;;;;;;;12.13;100.00;100005.97;5105732;28;20384;-69
2023/03/31 01:43:13;;;;;;;10.45;5.50;;;;;;;12.10;100.00;100005.41;5105610;28;20027;-70
2023/03/31 01:45:51;;;;;;;8.75;5.38;;;;;;;11.99;100.00;99995.72;5105217;28;20019;-69
2023/03/31 01:48:40;;;;;;;6.45;5.13;;;;;;;11.89;100.00;99994.94;5106607;27;20482;-70
2023/03/31 01:51:15;;;;;;;8.18;5.45;;;;;;;12.02;100.00;99994.59;5071393;28;20811;-70
2023/03/31 01:54:01;;;;;;;6.93;5.43;;;;;;;12.04;100.00;100006.00;5105557;28;20055;-69
2023/03/31 01:56:33;;;;;;;6.00;5.00;;;;;;;11.96;100.00;100003.25;5104991;28;20498;-70
2023/03/31 01:59:11;;;;;;;7.90;4.82;;;;;;;11.84;100.00;100007.13;5103791;28;20019;-69
2023/03/31 02:01:40;;;;;;;10.48;5.57;;;;;;;11.81;100.00;99977.88;5105246;28;20055;-70
2023/03/31 02:04:16;;;;;;;9.10;5.68;;;;;;;11.77;100.00;99993.44;5103581;28;20019;-70
2023/03/31 02:06:48;;;;;;;8.35;5.57;;;;;;;11.87;100.00;100012.19;5103118;28;20023;-70
2023/03/31 02:09:20;;;;;;;7.63;5.47;;;;;;;11.76;100.00;99989.06;5103667;28;20498;-70
2023/03/31 02:11:47;;;;;;;8.55;5.65;;;;;;;11.66;100.00;99974.84;5105629;28;20031;-70
2023/03/31 02:14:20;;;;;;;8.90;5.68;;;;;;;11.70;100.00;100003.09;5105557;28;20092;-70
2023/03/31 02:16:49;;;;;;;9.98;6.57;;;;;;;11.74;100.00;100007.19;5105038;28;20043;-70
2023/03/31 02:19:18;;;;;;;7.38;5.05;;;;;;;11.68;100.00;99988.13;5105372;28;20027;-69
2023/03/31 02:21:48;;;;;;;9.43;5.85;;;;;;;11.63;100.00;99990.41;5103665;28;20055;-70
2023/03/31 02:24:17;;;;;;;7.07;5.18;;;;;;;11.68;100.00;100001.56;5105347;28;20668;-69
2023/03/31 02:26:51;;;;;;;6.47;5.32;;;;;;;11.72;100.00;99995.75;5105002;28;20028;-70
2023/03/31 02:29:16;;;;;;;8.55;5.22;;;;;;;11.55;100.00;99983.09;5105173;28;20395;-70
2023/03/31 02:31:51;;;;;;;9.55;6.13;;;;;;;11.66;100.00;100011.59;5104893;28;20023;-70
2023/03/31 02:34:16;;;;;;;8.43;5.95;;;;;;;11.70;100.00;100002.25;5104927;28;20031;-70
2023/03/31 02:36:44;;;;;;;7.40;5.95;;;;;;;11.63;100.00;99998.47;5105042;28;20474;-70
2023/03/31 02:39:18;;;;;;;8.23;5.97;;;;;;;11.58;100.00;99994.34;5100036;28;20915;-70
2023/03/31 02:41:44;;;;;;;8.68;5.25;;;;;;;11.41;100.00;99983.56;5105284;28;20023;-70
2023/03/31 02:44:10;;;;;;;8.75;5.47;;;;;;;11.54;100.00;100002.84;5103156;28;20039;-70
2023/03/31 02:46:36;;;;;;;10.50;5.53;;;;;;;11.54;100.00;99998.34;5105489;28;20036;-69
2023/03/31 02:49:07;;;;;;;6.20;5.45;;;;;;;11.59;100.00;100008.63;5102522;28;20044;-69
2023/03/31 02:51:32;;;;;;;7.20;5.72;;;;;;;11.51;100.00;100004.00;5104718;28;20034;-70
2023/03/31 02:54:14;;;;;;;5.88;4.72;;;;;;;11.50;100.00;100009.53;5104916;28;20019;-70
2023/03/31 02:57:04;;;;;;;6.78;5.63;;;;;;;11.63;100.00;99998.47;5104741;28;20039;-69
2023/03/31 02:59:56;;;;;;;9.93;5.72;;;;;;;11.65;100.00;100000.03;5104504;28;20035;-70
2023/03/31 03:02:59;;;;;;;9.45;5.47;;;;;;;11.58;100.00;99999.72;5102886;28;20058;-69
2023/03/31 03:06:04;;;;;;;8.82;5.85;;;;;;;11.49;100.00;100007.84;5103433;28;20024;-69
2023/03/31 03:08:36;;;;;;;7.50;5.82;;;;;;;11.39;100.00;99999.81;5103149;28;20212;-69
2023/03/31 03:11:16;;;;;;;8.55;5.78;;;;;;;11.47;100.00;99991.03;5103753;28;20425;-70
2023/03/31 03:14:13;;;;;;;9.50;5.82;;;;;;;11.43;100.00;100005.75;5104782;28;20028;-69
2023/03/31 03:16:43;;;;;;;9.93;5.82;;;;;;;11.25;100.00;99983.34;5104938;28;20020;-69
2023/03/31 03:19:09;;;;;;;7.70;6.03;;;;;;;11.14;100.00;99983.53;5102845;28;20038;-72
2023/03/31 03:21:35;;;;;;;8.45;5.90;;;;;;;11.28;100.00;100005.38;5104928;28;20024;-71
2023/03/31 03:24:00;;;;;;;10.23;5.75;;;;;;;11.23;100.00;99988.84;5103298;28;20062;-72
2023/03/31 03:26:27;;;;;;;7.78;5.07;;;;;;;11.20;100.00;100004.41;5103478;28;20032;-72
2023/03/31 03:28:54;;;;;;;11.35;5.70;;;;;;;11.19;100.00;100008.94;5104924;28;20114;-72
2023/03/31 03:31:22;;;;;;;10.85;6.63;;;;;;;11.25;100.00;100005.66;5102672;28;20077;-72
2023/03/31 03:33:49;;;;;;;7.25;5.53;;;;;;;11.08;100.00;99995.69;5104691;28;20055;-72
2023/03/31 03:36:14;;;;;;;11.60;6.22;;;;;;;11.15;100.00;100004.00;5108898;28;20027;-72
2023/03/31 03:38:40;;;;;;;8.27;6.07;;;;;;;11.12;100.00;99994.41;5109112;28;20042;-72
2023/03/31 03:41:06;;;;;;;6.63;5.82;;;;;;;11.09;100.00;100012.63;5109023;28;20044;-72
2023/03/31 03:43:31;;;;;;;6.45;5.43;;;;;;;11.04;100.00;99996.13;5109060;28;20042;-72
2023/03/31 03:45:57;;;;;;;7.97;6.18;;;;;;;10.94;100.00;99980.03;5108117;28;20035;-72
2023/03/31 03:48:22;;;;;;;6.78;5.93;;;;;;;10.97;100.00;99993.16;5108877;28;20120;-72
2023/03/31 03:50:48;;;;;;;7.25;6.05;;;;;;;10.87;100.00;99986.97;5108903;28;20028;-72
2023/03/31 03:53:14;;;;;;;7.35;5.95;;;;;;;10.95;100.00;99988.94;5107291;28;20059;-72
2023/03/31 03:55:40;;;;;;;7.55;6.00;;;;;;;10.95;100.00;99986.25;5108353;28;20032;-73
2023/03/31 03:58:05;;;;;;;13.95;6.88;;;;;;;10.96;100.00;99979.91;5106673;28;20035;-72
2023/03/31 04:00:31;;;;;;;7.78;6.28;;;;;;;10.87;100.00;99986.16;5108628;28;20020;-73
2023/03/31 04:02:56;;;;;;;9.15;6.22;;;;;;;10.86;100.00;99985.31;5108813;27;20408;-73
2023/03/31 04:05:22;;;;;;;6.63;5.38;;;;;;;10.83;100.00;99977.53;5107202;28;20027;-70
2023/03/31 04:07:47;;;;;;;8.30;5.90;;;;;;;10.73;100.00;99954.41;5107672;28;20511;-70
2023/03/31 04:10:13;;;;;;;10.13;6.05;;;;;;;10.87;100.00;99983.47;5108173;28;20031;-69
2023/03/31 04:12:39;;;;;;;7.15;5.85;;;;;;;10.70;100.00;99977.00;5108380;28;20032;-69
2023/03/31 04:15:05;;;;;;;8.65;6.05;;;;;;;10.58;100.00;99962.03;5108215;27;20136;-70
2023/03/31 04:17:31;;;;;;;8.60;6.07;;;;;;;10.51;100.00;99960.94;5107719;28;20063;-70
2023/03/31 04:20:04;;;;;;;10.55;6.03;;;;;;;10.62;100.00;99978.72;5108504;28;20051;-69
2023/03/31 04:22:34;;;;;;;9.45;6.32;;;;;;;10.54;100.00;99978.56;5108390;28;20078;-70
2023/03/31 04:25:09;;;;;;;7.63;6.20;;;;;;;10.52;100.00;99977.88;5108568;28;20023;-70
2023/03/31 04:27:35;;;;;;;7.40;6.00;;;;;;;10.50;100.00;99982.53;5108311;28;20032;-70
2023/03/31 04:30:01;;;;;;;8.88;6.30;;;;;;;10.46;100.00;99973.94;5108223;28;20046;-70
2023/03/31 04:32:27;;;;;;;9.20;6.00;;;;;;;10.46;100.00;99983.81;5106339;28;20115;-70
2023/03/31 04:35:01;;;;;;;8.93;6.20;;;;;;;10.39;100.00;99955.88;5108224;28;20115;-70
2023/03/31 04:37:33;;;;;;;8.98;6.47;;;;;;;10.33;100.00;99954.63;5107761;28;20028;-70
2023/03/31 04:40:08;;;;;;;9.35;6.72;;;;;;;10.40;100.00;99973.66;5106512;28;20054;-72
2023/03/31 04:42:33;;;;;;;9.30;6.55;;;;;;;10.38;100.00;99970.28;5107788;28;20052;-72
2023/03/31 04:44:59;;;;;;;9.23;5.40;;;;;;;10.28;100.00;99954.19;5107306;28;20036;-70
2023/03/31 04:47:24;;;;;;;8.73;6.30;;;;;;;10.31;100.00;99953.91;5107645;28;20039;-69
2023/03/31 04:49:50;;;;;;;8.93;6.53;;;;;;;10.27;100.00;99952.50;5107244;28;20077;-70
2023/03/31 04:52:15;;;;;;;10.13;6.90;;;;;;;10.34;100.00;99968.84;5106963;28;20102;-69
2023/03/31 04:54:41;;;;;;;8.93;6.68;;;;;;;10.30;100.00;99959.41;5106790;28;20020;-70
2023/03/31 04:57:06;;;;;;;8.23;6.15;;;;;;;10.34;100.00;99964.34;5107431;28;20050;-70
2023/03/31 04:59:32;;;;;;;9.90;6.22;;;;;;;10.19;100.00;99932.75;5107393;28;20504;-69
2023/03/31 05:01:57;;;;;;;8.05;6.40;;;;;;;10.36;100.00;99962.38;5107111;28;20023;-69
2023/03/31 05:04:23;;;;;;;9.13;5.72;;;;;;;10.26;100.00;99950.81;5105493;28;20092;-70
2023/03/31 05:06:49;;;;;;;9.00;6.53;;;;;;;10.30;100.00;99957.56;5105442;28;20034;-70
2023/03/31 05:09:14;;;;;;;9.02;6.65;;;;;;;10.37;100.00;99960.53;5106359;28;20424;-70
2023/03/31 05:11:40;;;;;;;9.35;6.88;;;;;;;10.40;100.00;99963.78;5106719;28;20530;-70
2023/03/31 05:14:05;;;;;;;8.77;6.85;;;;;;;10.47;100.00;99964.03;5105260;28;20077;-69
2023/03/31 05:16:31;;;;;;;11.38;7.90;;;;;;;10.49;100.00;99964.75;5106944;28;20028;-70
2023/03/31 05:18:56;;;;;;;13.73;9.27;;;;;;;10.33;100.00;99935.00;5106888;28;20035;-69
2023/03/31 05:21:22;;;;;;;16.55;10.40;;;;;;;10.51;100.00;99960.94;5106610;28;20027;-70
2023/03/31 05:23:48;;;;;;;16.77;11.05;;;;;;;10.33;100.00;99930.50;5106561;28;20610;-71
2023/03/31 05:26:13;;;;;;;14.45;9.57;;;;;;;10.47;100.00;99943.44;5104169;27;20031;-70
2023/03/31 05:28:39;;;;;;;13.25;9.07;;;;;;;10.64;100.00;99961.47;5105990;27;20513;-70
2023/03/31 05:31:06;;;;;;;11.85;8.18;;;;;;;10.63;100.00;99949.06;5104374;28;20479;-70
2023/03/31 05:33:32;;;;;;;11.10;7.80;;;;;;;10.65;100.00;99939.06;5105239;28;20020;-71
2023/03/31 05:35:59;;;;;;;9.82;6.75;;;;;;;10.75;100.00;99953.28;5106809;28;20026;-71
2023/03/31 05:38:27;;;;;;;8.45;6.82;;;;;;;10.79;100.00;99960.03;5103320;28;20031;-71
2023/03/31 05:40:54;;;;;;;10.93;6.25;;;;;;;10.93;100.00;99959.56;5104641;28;20038;-71
2023/03/31 05:43:19;;;;;;;12.32;6.57;;;;;;;10.97;100.00;99952.91;5106238;28;20089;-71
2023/03/31 05:45:45;;;;;;;11.10;6.53;;;;;;;10.77;100.00;99913.72;5107294;28;20023;-71
2023/03/31 05:48:10;;;;;;;12.60;6.60;;;;;;;11.14;100.00;99957.53;5105602;28;20033;-72
2023/03/31 05:50:36;;;;;;;8.27;6.00;;;;;;;11.13;100.00;99944.28;5105134;28;20023;-72
2023/03/31 05:53:03;;;;;;;9.32;6.38;;;;;;;11.15;100.00;99943.13;5105779;28;20398;-71
2023/03/31 05:55:28;;;;;;;8.63;5.90;;;;;;;11.27;100.00;99957.19;5106456;28;20043;-71
2023/03/31 05:57:53;;;;;;;9.93;5.95;;;;;;;11.07;100.00;99916.16;5105414;28;20409;-72
2023/03/31 06:00:19;;;;;;;7.63;5.75;;;;;;;11.37;100.00;99937.38;5106416;28;20126;-72
2023/03/31 06:02:45;;;;;;;8.68;5.43;;;;;;;11.44;100.00;99949.22;5106060;28;20031;-72
2023/03/31 06:05:11;;;;;;;7.28;5.03;;;;;;;11.49;100.00;99952.28;5103924;28;20032;-72
2023/03/31 06:07:36;;;;;;;8.38;5.30;;;;;;;11.41;100.00;99938.75;5105797;28;20051;-71
2023/03/31 06:10:02;;;;;;;7.85;5.35;;;;;;;11.49;100.00;99951.44;5103971;28;20039;-71
2023/03/31 06:12:27;;;;;;;8.10;5.65;;;;;;;11.73;100.00;99953.63;5104621;28;20055;-72
2023/03/31 06:14:53;;;;;;;7.72;4.95;;;;;;;11.76;100.00;99931.78;5105662;28;20479;-72
2023/03/31 06:17:18;;;;;;;8.93;4.93;;;;;;;11.97;100.00;99954.72;5100443;28;20114;-73
2023/03/31 06:19:44;;;;;;;10.63;4.68;;;;;;;12.15;100.00;99942.13;5102506;28;20382;-72
2023/03/31 06:22:09;;;;;;;8.77;4.80;;;;;;;12.42;100.00;99951.94;5103203;28;20031;-72
2023/03/31 06:24:35;;;;;;;14.13;5.50;;;;;;;12.52;100.00;99956.25;5103909;28;20027;-72
2023/03/31 06:27:00;;;;;;;10.48;4.50;;;;;;;12.56;100.00;99930.72;5105399;28;20494;-72
2023/03/31 06:29:26;;;;;;;6.07;4.68;;;;;;;12.80;100.00;99954.28;5105243;28;20039;-72
2023/03/31 06:31:52;;;;;;;5.93;4.00;;;;;;;12.94;99.71;99948.28;5104967;28;20572;-72
2023/03/31 06:34:18;;;;;;;5.63;4.63;;;;;;;12.95;99.87;99937.38;5103885;28;20126;-72
2023/03/31 06:36:43;;;;;;;6.28;3.85;;;;;;;13.23;98.44;99956.91;5105421;28;20062;-71
2023/03/31 06:39:09;;;;;;;6.88;3.83;;;;;;;13.37;96.19;99948.22;5105305;28;20486;-72
2023/03/31 06:41:34;;;;;;;3.53;3.22;;;;;;;13.47;95.12;99924.69;5105838;28;20031;-72
2023/03/31 06:44:00;;;;;;;6.82;3.60;;;;;;;13.74;93.08;99962.19;5105581;28;20055;-72
2023/03/31 06:46:25;;;;;;;7.30;3.70;;;;;;;13.79;93.96;99949.06;5105553;28;20043;-72
2023/03/31 06:48:51;;;;;;;7.30;3.53;;;;;;;13.93;89.75;99934.94;5105307;28;20078;-72
2023/03/31 06:51:16;;;;;;;4.70;3.10;;;;;;;14.24;89.88;99952.22;5103427;28;20057;-72
2023/03/31 06:53:42;;;;;;;3.60;2.85;;;;;;;14.41;88.23;99950.41;5105576;28;20039;-72
2023/03/31 06:56:07;;;;;;;7.55;3.92;;;;;;;14.55;85.84;99941.63;5103210;28;20035;-71
2023/03/31 06:58:33;;;;;;;5.03;3.28;;;;;;;14.71;85.38;99947.88;5105249;28;20020;-71
2023/03/31 07:01:01;;;;;;;9.38;3.15;;;;;;;14.69;83.59;99925.59;5104428;28;20363;-72
2023/03/31 07:03:28;;;;;;;9.43;3.05;;;;;;;14.82;83.02;99930.44;5104239;28;20168;-72
2023/03/31 07:05:54;;;;;;;6.60;3.22;;;;;;;14.95;83.74;99937.03;5103845;28;20047;-71
2023/03/31 07:08:20;;;;;;;8.20;3.17;;;;;;;15.16;82.67;99945.41;5103726;28;20027;-72
2023/03/31 07:10:47;;;;;;;6.68;3.60;;;;;;;15.17;80.42;99933.59;5108362;28;20023;-71
2023/03/31 07:13:15;;;;;;;6.57;2.97;;;;;;;15.30;79.47;99951.97;5108474;28;20378;-72
2023/03/31 07:15:41;;;;;;;4.80;3.50;;;;;;;15.25;80.89;99932.75;5108059;28;20725;-72
2023/03/31 07:18:07;;;;;;;6.40;3.15;;;;;;;15.36;80.90;99946.75;5108857;28;20024;-71
2023/03/31 07:20:33;;;;;;;6.82;3.33;;;;;;;15.40;80.54;99937.28;5107606;28;20031;-71
2023/03/31 07:22:58;;;;;;;4.38;2.92;;;;;;;15.48;77.48;99933.69;5109308;28;20156;-72
2023/03/31 07:25:24;;;;;;;4.90;2.92;;;;;;;15.70;77.28;99947.25;5109236;28;20031;-71
2023/03/31 07:27:50;;;;;;;5.70;3.47;;;;;;;15.80;77.25;99937.06;5109268;28;20051;-71
2023/03/31 07:30:17;;;;;;;5.93;3.35;;;;;;;15.83;78.49;99920.50;5107178;28;20034;-71
2023/03/31 07:32:46;;;;;;;3.45;2.88;;;;;;;15.97;76.50;99921.59;5108842;28;20039;-71
2023/03/31 07:35:12;;;;;;;4.93;3.13;;;;;;;16.09;75.77;99935.56;5106703;28;20649;-71
2023/03/31 07:37:40;;;;;;;7.65;3.00;;;;;;;16.24;74.73;99933.75;5108840;28;20023;-71
2023/03/31 07:40:07;;;;;;;6.00;3.25;;;;;;;16.23;75.04;99922.09;5106826;28;20108;-72
2023/03/31 07:42:34;;;;;;;5.53;3.13;;;;;;;16.54;73.79;99927.47;5107356;28;20027;-71
2023/03/31 07:45:00;;;;;;;6.63;3.38;;;;;;;16.76;71.76;99913.03;5107465;28;20038;-71
2023/03/31 07:47:26;;;;;;;5.63;3.10;;;;;;;16.76;71.54;99904.91;5108960;28;20028;-71
2023/03/31 07:49:51;;;;;;;5.97;2.60;;;;;;;17.10;70.53;99927.78;5107223;28;20112;-72
2023/03/31 07:52:18;;;;;;;3.85;2.90;;;;;;;17.32;70.13;99924.13;5108234;28;20125;-71
2023/03/31 07:54:47;;;;;;;5.22;2.92;;;;;;;17.66;68.52;99921.69;5108447;28;20416;-71
2023/03/31 07:57:12;;;;;;;7.55;3.05;;;;;;;17.91;66.78;99911.34;5106801;28;20042;-71
2023/03/31 07:59:38;;;;;;;6.45;3.38;;;;;;;18.38;66.06;99895.38;5106843;28;20031;-71
2023/03/31 08:02:04;;;;;;;5.00;3.05;;;;;;;18.84;64.54;99893.91;5108083;28;20065;-71
2023/03/31 08:04:30;;;;;;;8.80;2.40;;;;;;;19.41;63.15;99896.41;5109042;28;20573;-71
2023/03/31 08:06:56;;;;;;;5.70;3.00;;;;;;;20.51;56.76;99890.47;5106047;27;20026;-71
2023/03/31 08:09:22;;;;;;;7.78;3.20;;;;;;;21.46;53.58;99882.59;5104809;28;20031;-71
2023/03/31 08:11:48;;;;;;;6.05;2.22;;;;;;;22.33;51.42;99883.66;5102679;28;20490;-74
2023/03/31 08:14:15;;;;;;;7.32;2.50;;;;;;;23.34;48.88;99882.41;5105302;28;20471;-74
2023/03/31 08:16:40;;;;;;;4.60;2.28;;;;;;;25.20;43.91;99869.94;5108061;28;20418;-71
2023/03/31 08:19:06;;;;;;;4.57;2.45;;;;;;;25.54;42.99;99871.00;5106533;28;20019;-71
2023/03/31 08:21:31;;;;;;;4.63;2.38;;;;;;;26.46;41.07;99854.13;5105213;28;20027;-72
2023/03/31 08:23:57;;;;;;;4.68;2.40;;;;;;;27.21;39.57;99852.63;5108620;27;20023;-71
2023/03/31 08:26:24;;;;;;;4.05;2.00;;;;;;;28.00;37.78;99849.31;5103670;28;20695;-71
2023/03/31 08:28:50;;;;;;;5.30;2.13;;;;;;;28.66;36.36;99836.19;5106617;28;20020;-70
2023/03/31 08:31:17;;;;;;;4.03;2.22;;;;;;;29.34;34.57;99844.44;5106766;27;20030;-70
2023/03/31 08:33:43;;;;;;;3.47;2.10;;;;;;;30.01;33.70;99823.16;5105770;28;20080;-71
2023/03/31 08:36:09;;;;;;;7.00;2.25;;;;;;;30.68;32.51;99834.91;5106404;28;20563;-71
2023/03/31 08:38:48;;;;;;;3.45;1.95;;;;;;;31.53;31.18;99833.97;5106582;28;20031;-71
2023/03/31 08:41:38;;;;;;;3.17;2.20;;;;;;;32.16;30.04;99822.03;5107156;28;20032;-71
2023/03/31 08:44:11;;;;;;;5.13;2.00;;;;;;;32.06;29.85;99814.59;5105063;28;20095;-73
2023/03/31 08:46:38;;;;;;;2.90;1.60;;;;;;;32.76;28.60;99806.88;5106036;28;20382;-73
2023/03/31 08:49:05;;;;;;;4.00;1.95;;;;;;;32.72;28.55;99805.81;5107508;28;20043;-74
2023/03/31 08:51:40;;;;;;;3.05;1.73;;;;;;;31.81;29.83;99803.63;5105311;28;20034;-74
2023/03/31 08:54:14;;;;;;;3.53;2.20;;;;;;;31.74;30.03;99783.69;5105810;28;20020;-73
2023/03/31 08:56:43;;;;;;;3.40;1.83;;;;;;;31.93;29.75;99779.16;5105346;28;20111;-74
2023/03/31 08:59:25;;;;;;;4.18;2.05;;;;;;;32.53;27.50;99783.47;5107489;27;20421;-73
2023/03/31 09:02:17;;;;;;;3.30;2.22;;;;;;;33.02;27.01;99781.34;5106673;28;20022;-74
2023/03/31 09:04:51;;;;;;;4.28;1.88;;;;;;;33.52;26.52;99778.00;5068467;28;20036;-74
2023/03/31 09:07:39;;;;;;;4.03;1.58;;;;;;;33.47;25.86;99764.19;5103738;28;20047;-74
2023/03/31 09:10:20;;;;;;;4.05;2.00;;;;;;;33.80;25.00;99759.53;5107989;28;20736;-71
2023/03/31 09:13:02;;;;;;;4.30;1.60;;;;;;;34.21;25.13;99766.19;5107347;28;20126;-74
2023/03/31 09:15:57;;;;;;;4.18;2.08;;;;;;;33.34;25.99;99764.03;5107346;28;20085;-74
2023/03/31 09:18:35;;;;;;;3.28;1.58;;;;;;;33.80;24.73;99737.28;5103282;28;20450;-74
2023/03/31 09:21:16;;;;;;;2.47;1.35;;;;;;;34.27;24.94;99745.50;5104710;28;20042;-73
2023/03/31 09:24:22;;;;;;;4.68;1.77;;;;;;;33.99;25.53;99747.34;5105098;28;20024;-73
2023/03/31 09:26:54;;;;;;;2.40;1.83;;;;;;;34.03;26.01;99733.63;5093393;28;20035;-74
2023/03/31 09:29:42;;;;;;;3.13;1.52;;;;;;;33.76;26.37;99731.47;5103380;28;20040;-73
2023/03/31 09:32:13;;;;;;;3.97;1.50;;;;;;;34.00;25.96;99720.31;5103154;28;20538;-73
2023/03/31 09:34:39;;;;;;;4.10;1.73;;;;;;;34.47;25.68;99714.53;5103719;28;20023;-74
2023/03/31 09:37:04;;;;;;;4.63;1.70;;;;;;;33.70;26.77;99707.66;5104012;28;20072;-73
2023/03/31 09:39:30;;;;;;;4.07;1.73;;;;;;;33.84;26.66;99716.06;5104032;28;20047;-73
2023/03/31 09:41:55;;;;;;;5.30;1.92;;;;;;;33.29;26.95;99700.97;5104186;28;20046;-74
2023/03/31 09:44:41;;;;;;;3.25;1.80;;;;;;;33.54;26.78;99705.38;5104955;28;20046;-74
2023/03/31 09:47:15;;;;;;;3.50;1.80;;;;;;;33.70;26.43;99701.25;5105427;28;20515;-73
2023/03/31 09:49:45;;;;;;;2.47;1.35;;;;;;;33.17;27.06;99700.56;5105408;28;20126;-72
2023/03/31 09:52:19;;;;;;;5.03;1.92;;;;;;;31.52;29.09;99691.72;5105167;27;20114;-72
2023/03/31 09:54:50;;;;;;;5.20;2.03;;;;;;;31.45;28.31;99685.66;5103890;28;20031;-73
2023/03/31 09:57:23;;;;;;;3.00;1.85;;;;;;;30.72;29.36;99686.44;5104856;28;20134;-73
2023/03/31 09:59:50;;;;;;;4.40;1.90;;;;;;;29.25;31.30;99670.03;5103040;28;20552;-73
2023/03/31 10:02:34;;;;;;;4.78;2.13;;;;;;;28.04;32.80;99686.91;5104705;28;21143;-72
2023/03/31 10:05:00;;;;;;;4.15;2.00;;;;;;;26.92;35.02;99679.59;5105592;28;20026;-72
2023/03/31 10:07:25;;;;;;;4.85;1.88;;;;;;;26.33;36.27;99673.78;5104367;28;20043;-72
2023/03/31 10:09:54;;;;;;;5.40;1.83;;;;;;;25.94;36.72;99673.94;5105478;28;20027;-73
2023/03/31 10:12:24;;;;;;;3.05;1.70;;;;;;;25.40;37.83;99678.19;5103831;28;20050;-72
2023/03/31 10:14:52;;;;;;;2.75;1.60;;;;;;;24.96;38.25;99665.22;5104777;28;20104;-72
2023/03/31 10:17:21;;;;;;;6.35;1.77;;;;;;;24.87;38.89;99672.16;5095541;28;20031;-72
2023/03/31 10:19:52;;;;;;;5.53;2.22;;;;;;;24.40;40.25;99652.16;5101444;28;20569;-73
2023/03/31 10:22:26;;;;;;;2.30;1.33;;;;;;;24.12;40.40;99665.75;5103566;28;20036;-72
2023/03/31 10:24:52;;;;;;;3.35;1.65;;;;;;;23.56;40.67;99618.84;5104055;28;20107;-72
2023/03/31 10:27:25;;;;;;;4.30;1.48;;;;;;;23.46;40.94;99662.41;5104402;28;20505;-72
2023/03/31 10:29:56;;;;;;;11.43;1.98;;;;;;;23.36;39.50;99651.19;5102276;28;20082;-71
2023/03/31 10:32:30;;;;;;;5.25;1.83;;;;;;;23.14;41.53;99650.00;5105347;28;20030;-71
2023/03/31 10:34:58;;;;;;;5.40;1.67;;;;;;;22.91;41.73;99647.16;5102291;28;20458;-72
2023/03/31 10:37:26;;;;;;;2.28;1.67;;;;;;;22.71;41.92;99623.84;5104189;28;20027;-71
2023/03/31 10:40:03;;;;;;;4.65;1.88;;;;;;;22.54;42.76;99617.34;5105204;28;20521;-71
2023/03/31 10:42:29;;;;;;;3.78;1.35;;;;;;;22.51;41.43;99637.78;5104930;28;20358;-70
2023/03/31 10:45:25;;;;;;;4.70;1.70;;;;;;;22.39;41.10;99614.94;5111414;28;20023;-72
2023/03/31 10:47:53;;;;;;;4.10;1.50;;;;;;;22.26;41.04;99604.16;5111762;28;20031;-72
2023/03/31 10:50:26;;;;;;;3.45;1.45;;;;;;;22.36;40.91;99609.94;5111652;27;20050;-72
2023/03/31 10:52:59;;;;;;;4.78;1.88;;;;;;;22.37;40.62;99586.19;5112234;27;20020;-73
2023/03/31 10:55:33;;;;;;;2.65;1.45;;;;;;;22.07;41.41;99577.91;5112346;27;20430;-71
2023/03/31 10:58:07;;;;;;;3.95;1.65;;;;;;;22.04;42.11;99598.31;5112443;27;20423;-71
2023/03/31 11:00:52;;;;;;;3.83;1.73;;;;;;;21.91;42.85;99592.13;5111560;27;20034;-71
2023/03/31 11:03:54;;;;;;;3.47;1.77;;;;;;;21.98;42.30;99591.00;5112021;28;20100;-72
2023/03/31 11:06:38;;;;;;;7.32;1.50;;;;;;;21.92;43.64;99586.44;5109839;28;20427;-72
2023/03/31 11:09:12;;;;;;;5.43;1.70;;;;;;;21.83;44.42;99589.72;5109129;28;20505;-72
2023/03/31 11:11:53;;;;;;;6.25;1.77;;;;;;;21.83;44.24;99576.88;5111840;27;20379;-72
2023/03/31 11:14:49;;;;;;;2.50;1.50;;;;;;;21.90;44.71;99591.28;5111803;28;20032;-71
2023/03/31 11:17:29;;;;;;;7.05;2.08;;;;;;;21.73;43.33;99578.47;5110671;28;20111;-71
2023/03/31 11:20:08;;;;;;;8.38;2.30;;;;;;;21.60;43.85;99590.28;5108690;28;20031;-72
2023/03/31 11:22:51;;;;;;;4.07;2.03;;;;;;;21.47;45.54;99573.22;5110397;28;20040;-72
2023/03/31 11:25:27;;;;;;;5.97;1.77;;;;;;;21.47;46.21;99582.22;5111820;27;20038;-72
2023/03/31 11:28:12;;;;;;;4.45;1.90;;;;;;;21.47;46.59;99570.47;5110222;28;20035;-72
2023/03/31 11:31:05;;;;;;;4.38;1.80;;;;;;;21.53;46.77;99570.41;5110309;28;20055;-72
2023/03/31 11:33:41;;;;;;;5.63;1.83;;;;;;;21.49;45.99;99560.16;5096555;28;20047;-71
2023/03/31 11:36:31;;;;;;;5.20;1.73;;;;;;;21.48;46.53;99551.13;5111469;27;20118;-71
2023/03/31 11:39:15;;;;;;;3.65;2.28;;;;;;;21.48;46.98;99544.84;5111622;27;20055;-71
2023/03/31 11:42:08;;;;;;;4.85;1.80;;;;;;;21.39;46.43;99538.00;5108292;28;20028;-71
2023/03/31 11:44:44;;;;;;;3.15;1.55;;;;;;;21.37;46.25;99534.63;5111717;27;20382;-72